Time;durP1;ratioP1;P1;durP2;ratioP2;P2;SDS_P1;SDS_P2;PMS_P1;PMS_P2;Temp;Humidity;BMP_temperature;BMP_pressure;BME280_temperature;BME280_humidity;BME280_pressure;Samples;Min_cycle;Max_cycle;Signal;HPM_P1;HPM_P2
2021/06/03 00:00:57;;;;;;;11.60;4.80;;;;;;;14.26;100.00;98219.28;5034487;28;20053;-78
2021/06/03 00:03:25;;;;;;;12.02;5.32;;;;;;;14.23;100.00;98214.47;5035298;28;20191;-79
2021/06/03 00:05:56;;;;;;;9.05;4.47;;;;;;;14.19;100.00;98215.47;5035098;28;20064;-79
2021/06/03 00:08:26;;;;;;;10.10;4.57;;;;;;;14.10;100.00;98203.78;5018676;28;20045;-78
2021/06/03 00:11:02;;;;;;;7.38;4.22;;;;;;;14.10;100.00;98214.66;5035289;28;20041;-79
2021/06/03 00:13:32;;;;;;;8.65;4.78;;;;;;;14.05;100.00;98210.19;5035728;28;20115;-78
2021/06/03 00:16:05;;;;;;;9.02;5.00;;;;;;;14.00;100.00;98213.09;5038127;28;20053;-79
2021/06/03 00:18:31;;;;;;;8.95;4.85;;;;;;;13.93;100.00;98207.34;5020037;28;20046;-79
2021/06/03 00:20:58;;;;;;;7.40;4.95;;;;;;;13.90;100.00;98205.25;5037096;28;20042;-79
2021/06/03 00:23:26;;;;;;;11.05;5.38;;;;;;;13.86;100.00;98203.50;5036063;28;20095;-77
2021/06/03 00:25:52;;;;;;;8.07;4.53;;;;;;;13.81;100.00;98190.06;5036973;28;20050;-79
2021/06/03 00:28:20;;;;;;;9.95;4.30;;;;;;;13.78;100.00;98207.84;5021729;28;20042;-78
2021/06/03 00:30:47;;;;;;;11.55;4.70;;;;;;;13.77;100.00;98194.53;5037332;28;20041;-77
2021/06/03 00:33:14;;;;;;;9.57;4.85;;;;;;;13.72;100.00;98201.75;5036800;28;20773;-77
2021/06/03 00:35:42;;;;;;;7.45;4.72;;;;;;;13.69;100.00;98193.41;5038010;28;20049;-78
2021/06/03 00:38:09;;;;;;;6.60;4.50;;;;;;;13.60;100.00;98200.81;5036744;28;20041;-78
2021/06/03 00:40:36;;;;;;;7.88;4.63;;;;;;;13.53;100.00;98195.03;5036260;28;20100;-77
2021/06/03 00:43:04;;;;;;;8.15;4.80;;;;;;;13.49;100.00;98194.88;5034937;28;20158;-78
2021/06/03 00:45:35;;;;;;;8.38;5.22;;;;;;;13.46;100.00;98198.22;5018538;28;20065;-78
2021/06/03 00:48:04;;;;;;;9.82;5.05;;;;;;;13.40;100.00;98196.78;5017137;28;20053;-78
2021/06/03 00:50:33;;;;;;;7.95;4.90;;;;;;;13.35;100.00;98196.94;5015892;28;20046;-78
2021/06/03 00:53:04;;;;;;;10.70;5.50;;;;;;;13.37;100.00;98205.56;5016522;28;20065;-79
2021/06/03 00:55:35;;;;;;;8.98;4.88;;;;;;;13.39;100.00;98200.63;5016553;28;20042;-79
2021/06/03 00:58:03;;;;;;;9.85;4.85;;;;;;;13.45;100.00;98202.06;5018329;28;20042;-78
2021/06/03 01:00:30;;;;;;;9.65;4.65;;;;;;;13.59;100.00;98194.56;5040659;28;20054;-79
2021/06/03 01:02:57;;;;;;;8.07;4.90;;;;;;;13.68;100.00;98203.50;5006867;28;20050;-79
2021/06/03 01:05:28;;;;;;;11.82;4.93;;;;;;;13.70;100.00;98200.47;5022116;28;20534;-79
2021/06/03 01:07:58;;;;;;;8.40;5.20;;;;;;;13.65;100.00;98198.69;5007990;28;20060;-78
2021/06/03 01:10:30;;;;;;;12.10;4.90;;;;;;;13.65;100.00;98195.97;5028271;28;20219;-77
2021/06/03 01:13:15;;;;;;;12.13;5.07;;;;;;;13.66;100.00;98200.31;5013848;28;20100;-78
2021/06/03 01:15:45;;;;;;;12.68;4.97;;;;;;;13.64;100.00;98197.13;5012989;28;20049;-78
2021/06/03 01:18:12;;;;;;;8.13;4.57;;;;;;;13.72;100.00;98198.22;5041417;28;20069;-79
2021/06/03 01:20:40;;;;;;;7.80;5.13;;;;;;;13.69;100.00;98204.31;5021735;28;20215;-79
2021/06/03 01:23:13;;;;;;;9.48;4.78;;;;;;;13.64;100.00;98197.13;5021334;28;20046;-78
2021/06/03 01:25:40;;;;;;;8.75;4.90;;;;;;;13.70;100.00;98201.25;5002854;28;20144;-79
2021/06/03 01:28:07;;;;;;;8.48;4.90;;;;;;;13.68;100.00;98203.50;5019773;28;20077;-78
2021/06/03 01:30:39;;;;;;;8.68;5.03;;;;;;;13.67;100.00;98204.63;5015959;28;20061;-79
2021/06/03 01:33:32;;;;;;;9.02;5.25;;;;;;;13.67;100.00;98210.09;5016932;28;20100;-78
2021/06/03 01:36:03;;;;;;;8.82;5.30;;;;;;;13.64;100.00;98212.63;5015537;28;20104;-77
2021/06/03 01:38:32;;;;;;;7.18;4.43;;;;;;;13.53;100.00;98206.72;5017114;28;20046;-78
2021/06/03 01:41:01;;;;;;;8.00;5.10;;;;;;;13.45;100.00;98212.94;4999632;28;20049;-79
2021/06/03 01:43:31;;;;;;;7.57;4.68;;;;;;;13.36;100.00;98205.91;5017358;28;20069;-78
2021/06/03 01:45:59;;;;;;;10.63;5.00;;;;;;;13.38;100.00;98212.63;5015703;28;20046;-79
2021/06/03 01:48:26;;;;;;;9.20;4.60;;;;;;;13.36;100.00;98214.06;5015686;28;20472;-78
2021/06/03 01:50:55;;;;;;;7.47;5.00;;;;;;;13.36;100.00;98216.78;5016792;28;20056;-78
2021/06/03 01:53:24;;;;;;;8.20;5.00;;;;;;;13.33;100.00;98210.06;4999221;28;20045;-79
2021/06/03 01:55:53;;;;;;;9.43;5.20;;;;;;;13.30;100.00;98218.03;5015003;28;20529;-79
2021/06/03 01:58:21;;;;;;;14.85;5.70;;;;;;;13.20;100.00;98208.28;5014770;28;20514;-78
2021/06/03 02:00:48;;;;;;;10.48;5.38;;;;;;;13.25;100.00;98213.56;5001960;28;20049;-79
2021/06/03 02:03:15;;;;;;;11.85;5.50;;;;;;;13.26;100.00;98215.19;5001241;28;20108;-78
2021/06/03 02:05:41;;;;;;;8.82;4.80;;;;;;;13.24;100.00;98206.50;5019057;28;20056;-78
2021/06/03 02:08:08;;;;;;;10.35;5.30;;;;;;;13.19;100.00;98201.22;5017301;28;20057;-76
2021/06/03 02:10:34;;;;;;;7.85;5.25;;;;;;;13.20;100.00;98202.84;5018279;28;20064;-78
2021/06/03 02:13:04;;;;;;;7.60;5.13;;;;;;;13.12;100.00;98206.34;5017239;28;20045;-78
2021/06/03 02:15:35;;;;;;;8.88;4.72;;;;;;;13.07;100.00;98210.03;5021517;28;20133;-78
2021/06/03 02:18:06;;;;;;;12.02;5.22;;;;;;;13.01;100.00;98207.72;5017952;28;20053;-78
2021/06/03 02:20:36;;;;;;;9.57;5.30;;;;;;;12.98;100.00;98202.94;5016672;28;20124;-78
2021/06/03 02:23:04;;;;;;;10.40;5.35;;;;;;;12.95;100.00;98209.00;5015570;28;20045;-78
2021/06/03 02:25:30;;;;;;;9.15;4.93;;;;;;;12.97;100.00;98199.41;5020477;28;20094;-77
2021/06/03 02:27:58;;;;;;;7.47;4.88;;;;;;;12.94;100.00;98207.38;5033929;28;20410;-77
2021/06/03 02:30:25;;;;;;;9.10;5.68;;;;;;;12.85;100.00;98201.91;5034240;28;20095;-79
2021/06/03 02:32:53;;;;;;;7.70;5.32;;;;;;;12.81;100.00;98208.31;5034845;28;20060;-78
2021/06/03 02:35:22;;;;;;;10.75;4.97;;;;;;;12.81;100.00;98211.03;5034179;28;20099;-78
2021/06/03 02:37:49;;;;;;;8.18;5.55;;;;;;;12.79;100.00;98213.25;5034270;28;20148;-79
2021/06/03 02:40:26;;;;;;;9.00;5.97;;;;;;;12.81;100.00;98214.56;5034261;28;20041;-79
2021/06/03 02:42:53;;;;;;;10.20;5.97;;;;;;;12.85;100.00;98212.00;5016988;28;20045;-79
2021/06/03 02:45:26;;;;;;;10.98;5.65;;;;;;;12.82;100.00;98208.00;5032670;28;20059;-77
2021/06/03 02:47:55;;;;;;;8.95;5.43;;;;;;;12.84;100.00;98210.41;5032878;28;20410;-78
2021/06/03 02:50:24;;;;;;;12.65;5.80;;;;;;;12.81;100.00;98208.31;5017328;28;20103;-79
2021/06/03 02:52:52;;;;;;;6.70;5.07;;;;;;;12.78;100.00;98209.72;5034390;28;20050;-78
2021/06/03 02:55:23;;;;;;;10.27;5.50;;;;;;;12.66;100.00;98203.31;5049674;23;20511;-76
2021/06/03 02:57:50;;;;;;;9.05;5.68;;;;;;;12.77;100.00;98226.38;5048053;28;20041;-76
2021/06/03 03:00:25;;;;;;;10.63;6.13;;;;;;;12.73;100.00;98225.38;5049631;28;20484;-77
2021/06/03 03:02:58;;;;;;;9.07;5.65;;;;;;;12.70;100.00;98215.16;5029486;28;20088;-74
2021/06/03 03:05:26;;;;;;;9.50;5.63;;;;;;;12.68;100.00;98226.31;5029720;28;20269;-76
2021/06/03 03:07:54;;;;;;;10.23;6.22;;;;;;;12.72;100.00;98232.75;5040278;23;20049;-79
2021/06/03 03:10:31;;;;;;;13.60;6.35;;;;;;;12.72;100.00;98231.94;5030143;28;20048;-79
2021/06/03 03:12:58;;;;;;;8.93;5.78;;;;;;;12.67;100.00;98227.44;5031519;28;20690;-79
2021/06/03 03:15:26;;;;;;;9.63;5.35;;;;;;;12.69;100.00;98240.72;5030528;28;20620;-79
2021/06/03 03:17:54;;;;;;;12.95;6.03;;;;;;;12.63;100.00;98237.34;5030887;28;20053;-79
2021/06/03 03:20:25;;;;;;;13.73;6.13;;;;;;;12.59;100.00;98254.56;5013776;28;20049;-79
2021/06/03 03:22:54;;;;;;;12.00;6.07;;;;;;;12.38;100.00;98248.88;5032127;28;20042;-80
2021/06/03 03:25:26;;;;;;;9.82;6.07;;;;;;;12.39;100.00;98245.84;5030556;28;20568;-77
2021/06/03 03:27:56;;;;;;;10.38;6.07;;;;;;;12.39;100.00;98242.31;5030108;28;20075;-78
2021/06/03 03:30:28;;;;;;;10.32;5.78;;;;;;;12.41;100.00;98250.97;5030189;28;20038;-79
2021/06/03 03:32:55;;;;;;;12.45;5.85;;;;;;;12.49;100.00;98259.16;5012980;28;20107;-79
2021/06/03 03:35:22;;;;;;;6.72;5.13;;;;;;;12.48;100.00;98252.13;5031083;28;20053;-79
2021/06/03 03:37:50;;;;;;;12.68;5.93;;;;;;;12.47;100.00;98253.22;5031434;28;20069;-78
2021/06/03 03:40:25;;;;;;;12.10;5.45;;;;;;;12.46;100.00;98254.34;5031212;28;20053;-79
2021/06/03 03:42:53;;;;;;;9.00;5.50;;;;;;;12.49;100.00;98247.50;5030981;28;20165;-79
2021/06/03 03:45:27;;;;;;;12.13;5.57;;;;;;;12.50;100.00;98251.81;5030555;28;20466;-79
2021/06/03 03:47:53;;;;;;;11.23;5.47;;;;;;;12.49;100.00;98252.94;5030958;28;20045;-78
2021/06/03 03:50:25;;;;;;;12.52;5.10;;;;;;;12.46;100.00;98261.69;5031954;28;20514;-79
2021/06/03 03:52:54;;;;;;;11.68;5.95;;;;;;;12.47;100.00;98264.09;5030732;28;20045;-78
2021/06/03 03:55:22;;;;;;;10.90;5.72;;;;;;;12.51;100.00;98258.84;5030526;28;20053;-79
2021/06/03 03:57:50;;;;;;;13.15;6.25;;;;;;;12.53;100.00;98264.75;5029643;28;20533;-80
2021/06/03 04:00:23;;;;;;;8.00;5.43;;;;;;;12.61;100.00;98272.16;5032631;28;20045;-78
2021/06/03 04:02:50;;;;;;;11.00;5.57;;;;;;;12.64;100.00;98265.31;5031813;28;20087;-75
2021/06/03 04:05:19;;;;;;;11.00;6.03;;;;;;;12.63;100.00;98275.34;5032996;28;20041;-77
2021/06/03 04:07:46;;;;;;;12.40;5.82;;;;;;;12.61;100.00;98274.88;5032847;28;20056;-76
2021/06/03 04:10:19;;;;;;;12.85;6.40;;;;;;;12.66;100.00;98277.47;5033701;28;20069;-76
2021/06/03 04:12:49;;;;;;;12.32;6.03;;;;;;;12.65;100.00;98272.31;5033374;28;20099;-77
2021/06/03 04:15:16;;;;;;;10.93;6.40;;;;;;;12.61;100.00;98276.78;5030956;28;20794;-76
2021/06/03 04:17:43;;;;;;;9.90;5.90;;;;;;;12.61;100.00;98276.78;5032760;28;20080;-78
2021/06/03 04:20:13;;;;;;;11.20;5.35;;;;;;;12.67;100.00;98280.97;5032697;28;20454;-78
2021/06/03 04:22:42;;;;;;;10.20;6.35;;;;;;;12.64;100.00;98276.16;5032648;28;20395;-77
2021/06/03 04:25:10;;;;;;;11.50;6.72;;;;;;;12.68;100.00;98285.28;5031534;28;20049;-78
2021/06/03 04:27:39;;;;;;;10.25;5.93;;;;;;;12.73;100.00;98290.56;5032007;28;20038;-77
2021/06/03 04:30:12;;;;;;;9.27;5.90;;;;;;;12.79;100.00;98283.91;5044603;28;20053;-79
2021/06/03 04:32:39;;;;;;;8.60;5.70;;;;;;;12.85;100.00;98280.72;5031169;28;20053;-78
2021/06/03 04:35:06;;;;;;;12.68;5.82;;;;;;;12.91;100.00;98284.09;5029932;28;20052;-78
2021/06/03 04:37:33;;;;;;;9.35;6.10;;;;;;;13.00;100.00;98291.19;5032016;28;20053;-78
2021/06/03 04:40:00;;;;;;;9.90;5.78;;;;;;;13.05;100.00;98292.97;5032257;28;20049;-78
2021/06/03 04:42:27;;;;;;;10.70;5.95;;;;;;;13.07;100.00;98296.19;5030819;28;20041;-78
2021/06/03 04:44:53;;;;;;;11.40;6.07;;;;;;;13.16;100.00;98307.91;5031410;28;20107;-78
2021/06/03 04:47:20;;;;;;;12.05;6.40;;;;;;;13.24;100.00;98307.13;5029376;28;20079;-78
2021/06/03 04:49:47;;;;;;;11.70;6.50;;;;;;;13.35;100.00;98313.06;5033604;28;20060;-79
2021/06/03 04:52:25;;;;;;;8.70;5.80;;;;;;;13.40;100.00;98300.13;5034663;28;20041;-78
2021/06/03 04:55:03;;;;;;;15.52;5.75;;;;;;;13.57;100.00;98304.81;5034240;28;20540;-78
2021/06/03 04:57:32;;;;;;;15.13;5.95;;;;;;;13.68;100.00;98303.38;5035022;28;20048;-78
2021/06/03 04:59:59;;;;;;;12.13;5.88;;;;;;;13.78;100.00;98307.72;5034969;28;20048;-80
2021/06/03 05:02:26;;;;;;;11.52;5.45;;;;;;;13.92;100.00;98309.16;5038018;28;20038;-80
2021/06/03 05:04:53;;;;;;;9.27;5.10;;;;;;;14.05;100.00;98304.69;5037761;28;20045;-79
2021/06/03 05:07:20;;;;;;;10.27;5.35;;;;;;;14.19;100.00;98316.22;5036337;28;20045;-79
2021/06/03 05:09:47;;;;;;;13.02;5.03;;;;;;;14.33;100.00;98316.88;5034593;28;20450;-79
2021/06/03 05:12:14;;;;;;;7.55;4.57;;;;;;;14.55;100.00;98313.16;5033600;28;20037;-79
2021/06/03 05:14:41;;;;;;;7.90;4.80;;;;;;;14.73;100.00;98320.97;5033218;28;20419;-78
2021/06/03 05:17:07;;;;;;;8.38;4.65;;;;;;;14.92;100.00;98318.66;5033030;28;20490;-78
2021/06/03 05:19:36;;;;;;;6.70;4.10;;;;;;;15.12;100.00;98335.44;5033423;28;20411;-79
2021/06/03 05:22:03;;;;;;;10.35;4.55;;;;;;;15.32;100.00;98323.78;5033823;28;20059;-79
2021/06/03 05:24:29;;;;;;;9.68;4.32;;;;;;;15.44;100.00;98321.94;5030801;28;20216;-79
2021/06/03 05:26:59;;;;;;;8.15;4.18;;;;;;;15.65;100.00;98324.75;5032480;28;20107;-78
2021/06/03 05:29:26;;;;;;;8.20;3.78;;;;;;;15.74;100.00;98319.25;5032080;28;20057;-79
2021/06/03 05:31:53;;;;;;;7.47;4.05;;;;;;;15.94;100.00;98323.91;5034511;28;20056;-79
2021/06/03 05:34:20;;;;;;;8.60;3.58;;;;;;;16.02;100.00;98318.41;5032183;28;20050;-79
2021/06/03 05:36:46;;;;;;;9.73;4.65;;;;;;;16.19;100.00;98326.44;5032709;28;20045;-79
2021/06/03 05:39:13;;;;;;;9.15;3.80;;;;;;;16.32;100.00;98323.75;5031537;28;20046;-79
2021/06/03 05:41:41;;;;;;;8.32;4.00;;;;;;;16.48;100.00;98327.47;5033192;28;20046;-78
2021/06/03 05:44:12;;;;;;;10.48;3.90;;;;;;;16.60;100.00;98336.53;5024072;28;20103;-78
2021/06/03 05:46:39;;;;;;;8.07;3.83;;;;;;;16.74;100.00;98337.06;5007903;28;20121;-78
2021/06/03 05:49:09;;;;;;;7.80;3.70;;;;;;;16.87;100.00;98332.41;5028349;28;20064;-79
2021/06/03 05:51:39;;;;;;;9.02;3.33;;;;;;;17.03;100.00;98338.81;5022811;28;20050;-79
2021/06/03 05:54:07;;;;;;;9.38;4.68;;;;;;;17.20;100.00;98335.88;5027776;28;20059;-79
2021/06/03 05:56:33;;;;;;;8.07;3.90;;;;;;;17.38;100.00;98333.72;5029388;28;20377;-79
2021/06/03 05:59:00;;;;;;;9.25;5.13;;;;;;;17.57;100.00;98335.91;5028553;28;20076;-78
2021/06/03 06:01:28;;;;;;;7.50;3.88;;;;;;;17.67;100.00;98336.25;5033516;28;20128;-78
2021/06/03 06:06:29;;;;;;;8.05;2.58;;;;;;;17.98;100.00;98330.16;5030465;28;20045;-78
2021/06/03 06:09:01;;;;;;;6.25;2.97;;;;;;;18.17;100.00;98338.53;5027421;28;20454;-79
2021/06/03 06:11:30;;;;;;;8.57;2.78;;;;;;;18.30;100.00;98347.53;5025247;28;20042;-78
2021/06/03 06:13:59;;;;;;;4.85;2.70;;;;;;;18.38;100.00;98344.63;5026574;28;20033;-78
2021/06/03 06:16:32;;;;;;;9.70;2.85;;;;;;;18.42;100.00;98356.53;5029276;28;20128;-79
2021/06/03 06:19:00;;;;;;;5.05;2.60;;;;;;;18.56;100.00;98361.63;5023640;28;20080;-78
2021/06/03 06:21:32;;;;;;;9.73;2.85;;;;;;;18.58;100.00;98359.34;5023075;28;20136;-78
2021/06/03 06:23:58;;;;;;;12.18;3.20;;;;;;;18.72;100.00;98365.22;5023540;28;20376;-79
2021/06/03 06:26:26;;;;;;;9.02;2.95;;;;;;;18.80;100.00;98369.75;5027421;28;20379;-78
2021/06/03 06:28:54;;;;;;;10.15;3.30;;;;;;;18.88;100.00;98370.75;5028063;28;20049;-78
2021/06/03 06:31:22;;;;;;;8.65;3.10;;;;;;;19.00;100.00;98368.72;5027016;28;20045;-78
2021/06/03 06:33:49;;;;;;;11.27;2.67;;;;;;;19.19;100.00;98368.03;5023302;28;20462;-77
2021/06/03 06:36:16;;;;;;;9.13;2.67;;;;;;;19.31;100.00;98370.69;5025023;28;20465;-77
2021/06/03 06:38:43;;;;;;;9.63;2.92;;;;;;;19.33;100.00;98373.09;5028586;28;20311;-78
2021/06/03 06:41:11;;;;;;;10.65;3.05;;;;;;;19.46;100.00;98369.94;5027116;28;20107;-78
2021/06/03 06:43:38;;;;;;;12.43;2.90;;;;;;;19.52;100.00;98371.25;5024515;28;20057;-77
2021/06/03 06:46:05;;;;;;;9.85;2.72;;;;;;;19.54;100.00;98374.44;5035504;28;20048;-78
2021/06/03 06:48:33;;;;;;;7.28;3.20;;;;;;;19.64;100.00;98376.66;5027137;28;20111;-78
2021/06/03 06:51:00;;;;;;;11.25;3.22;;;;;;;19.70;100.00;98368.94;5026874;28;20051;-79
2021/06/03 06:53:34;;;;;;;14.35;3.05;;;;;;;19.86;100.00;98372.47;5027772;28;20800;-76
2021/06/03 06:56:01;;;;;;;7.93;2.58;;;;;;;20.05;100.00;98380.78;5027421;28;20045;-79
2021/06/03 06:58:28;;;;;;;10.15;3.00;;;;;;;20.08;100.00;98365.50;5025600;28;20049;-78
2021/06/03 07:00:56;;;;;;;12.02;3.10;;;;;;;20.12;100.00;98366.38;5029086;28;20064;-78
2021/06/03 07:03:23;;;;;;;13.52;2.78;;;;;;;20.28;100.00;98365.22;5028261;28;20038;-77
2021/06/03 07:05:50;;;;;;;8.07;2.70;;;;;;;20.36;100.00;98368.91;5025124;28;20053;-79
2021/06/03 07:08:16;;;;;;;8.32;2.75;;;;;;;20.49;100.00;98367.63;5028520;28;20548;-79
2021/06/03 07:10:44;;;;;;;4.88;2.30;;;;;;;20.56;100.00;98367.75;5041093;28;20052;-79
2021/06/03 07:13:11;;;;;;;6.00;2.78;;;;;;;20.68;100.00;98370.34;5047242;28;20045;-78
2021/06/03 07:15:38;;;;;;;8.10;2.63;;;;;;;20.73;100.00;98372.00;5042794;28;20064;-79
2021/06/03 07:18:04;;;;;;;10.65;2.63;;;;;;;20.91;100.00;98368.44;5048264;28;20060;-77
2021/06/03 07:20:31;;;;;;;7.82;2.60;;;;;;;21.06;100.00;98375.81;5045809;28;20490;-79
2021/06/03 07:23:04;;;;;;;12.40;2.75;;;;;;;21.19;100.00;98375.69;5045880;28;20072;-78
2021/06/03 07:25:36;;;;;;;8.05;2.60;;;;;;;21.30;94.63;98373.88;5040674;28;20053;-78
2021/06/03 07:28:04;;;;;;;5.38;2.53;;;;;;;21.41;98.24;98369.38;5025036;28;20053;-79
2021/06/03 07:30:31;;;;;;;9.30;2.65;;;;;;;21.57;98.02;98381.84;5026851;28;20050;-79
2021/06/03 07:32:58;;;;;;;5.13;2.28;;;;;;;21.62;86.49;98375.22;5026401;28;20091;-78
2021/06/03 07:35:26;;;;;;;10.40;2.60;;;;;;;21.71;91.65;98376.56;5004662;28;20061;-79
2021/06/03 07:37:53;;;;;;;8.35;2.60;;;;;;;21.88;99.60;98366.22;5019159;28;20049;-80
2021/06/03 07:40:24;;;;;;;6.43;2.45;;;;;;;22.61;81.99;98373.94;5031888;28;20080;-79
2021/06/03 07:42:54;;;;;;;9.45;2.45;;;;;;;23.10;74.23;98373.72;5034756;28;20044;-79
2021/06/03 07:45:25;;;;;;;7.53;2.50;;;;;;;23.48;64.45;98370.56;5034046;28;20061;-79
2021/06/03 07:47:53;;;;;;;14.88;2.53;;;;;;;23.79;62.07;98370.03;5034775;28;20045;-79
2021/06/03 07:50:21;;;;;;;8.27;2.33;;;;;;;24.43;56.61;98373.22;5034747;28;20124;-81
2021/06/03 07:52:47;;;;;;;10.63;2.63;;;;;;;24.48;54.74;98367.28;5039161;28;20042;-80
2021/06/03 07:55:15;;;;;;;6.68;2.72;;;;;;;24.25;59.59;98373.13;5039593;28;20079;-80
2021/06/03 07:57:44;;;;;;;5.00;2.08;;;;;;;24.07;57.97;98377.72;5036713;28;20300;-80
2021/06/03 08:00:13;;;;;;;10.65;2.50;;;;;;;23.85;56.73;98373.19;5038993;28;20129;-80
2021/06/03 08:02:44;;;;;;;4.80;2.10;;;;;;;23.94;53.89;98373.69;5041875;28;20041;-81
2021/06/03 08:05:16;;;;;;;7.10;2.50;;;;;;;23.91;54.76;98371.66;5041703;28;20049;-79
2021/06/03 08:07:43;;;;;;;6.78;2.15;;;;;;;23.77;53.42;98369.59;5042269;28;20048;-80
2021/06/03 08:10:13;;;;;;;6.57;2.50;;;;;;;24.07;55.38;98372.19;5042075;28;20045;-80
2021/06/03 08:12:39;;;;;;;6.50;2.45;;;;;;;24.30;49.48;98371.94;5039120;28;20124;-79
2021/06/03 08:15:08;;;;;;;4.60;2.40;;;;;;;24.11;49.44;98376.59;5036693;28;20313;-80
2021/06/03 08:17:35;;;;;;;5.55;2.28;;;;;;;24.38;50.13;98365.28;5036551;28;20045;-77
2021/06/03 08:20:09;;;;;;;6.88;2.10;;;;;;;24.46;45.23;98367.69;5036743;28;20042;-81
2021/06/03 08:22:36;;;;;;;5.18;2.28;;;;;;;24.68;47.98;98361.06;5032433;28;20042;-80
2021/06/03 08:25:04;;;;;;;6.68;2.33;;;;;;;24.75;48.54;98354.75;5034374;28;20053;-80
2021/06/03 08:27:31;;;;;;;7.65;2.00;;;;;;;25.25;47.94;98361.22;5037942;28;20045;-79
2021/06/03 08:29:57;;;;;;;10.48;2.95;;;;;;;25.55;46.12;98361.66;5039472;28;20057;-80
2021/06/03 08:32:24;;;;;;;4.97;2.13;;;;;;;25.49;49.49;98363.28;5039633;28;20053;-79
2021/06/03 08:34:53;;;;;;;7.53;2.50;;;;;;;25.45;45.19;98365.19;5039843;28;20041;-80
2021/06/03 08:37:19;;;;;;;4.32;2.15;;;;;;;25.32;46.09;98367.56;5037689;28;20055;-80
2021/06/03 08:39:47;;;;;;;4.47;2.13;;;;;;;25.13;47.27;98367.94;5038235;28;20049;-79
2021/06/03 08:42:17;;;;;;;6.03;2.30;;;;;;;25.49;47.29;98377.13;5038397;28;20115;-78
2021/06/03 08:44:44;;;;;;;4.82;2.00;;;;;;;25.65;44.61;98373.97;5038607;28;20064;-80
2021/06/03 08:47:11;;;;;;;8.95;1.98;;;;;;;25.49;43.35;98366.03;5037747;28;20115;-79
2021/06/03 08:49:38;;;;;;;8.40;2.17;;;;;;;25.77;45.79;98368.81;5034536;28;20108;-80
2021/06/03 08:52:07;;;;;;;5.57;2.22;;;;;;;25.78;46.16;98366.84;5019270;28;20457;-80
2021/06/03 08:54:36;;;;;;;5.43;2.00;;;;;;;25.40;44.62;98366.38;5017646;28;20045;-80
2021/06/03 08:57:12;;;;;;;9.52;2.47;;;;;;;25.54;46.94;98345.44;5042425;23;20037;-82
2021/06/03 08:59:42;;;;;;;4.03;2.10;;;;;;;25.70;44.22;98352.19;5057045;28;20059;-83
2021/06/03 09:02:11;;;;;;;7.63;2.53;;;;;;;25.54;44.32;98350.97;5040789;28;20041;-83
2021/06/03 09:04:45;;;;;;;10.32;2.35;;;;;;;26.06;44.26;98360.44;5041735;28;20037;-83
2021/06/03 09:07:33;;;;;;;4.90;2.23;;;;;;;26.20;42.33;98361.22;5024819;28;20139;-83
2021/06/03 09:10:28;;;;;;;2.72;1.90;;;;;;;26.14;41.23;98362.06;5025078;28;20288;-83
2021/06/03 09:13:41;;;;;;;;;;;;;;;;;;;;;
2021/06/03 09:16:21;;;;;;;4.60;2.00;;;;;;;26.46;40.02;98362.75;5061381;23;20453;-79
2021/06/03 09:18:59;;;;;;;5.00;2.15;;;;;;;25.96;38.50;98357.28;5032069;28;20551;-79
2021/06/03 09:21:31;;;;;;;4.78;2.10;;;;;;;25.92;38.02;98356.50;5014764;28;20046;-79
2021/06/03 09:24:01;;;;;;;4.45;2.40;;;;;;;26.26;37.99;98358.84;5014517;28;20045;-79
2021/06/03 09:26:34;;;;;;;10.70;2.28;;;;;;;26.45;39.48;98361.19;5036841;28;20049;-81
2021/06/03 09:29:04;;;;;;;5.90;1.90;;;;;;;26.57;37.28;98355.16;5031283;28;20044;-78
2021/06/03 09:31:34;;;;;;;3.22;2.00;;;;;;;27.21;39.11;98358.44;5041857;23;20480;-77
2021/06/03 09:34:18;;;;;;;8.40;2.35;;;;;;;27.89;39.03;98358.72;5029145;28;20419;-77
2021/06/03 09:36:47;;;;;;;6.97;2.38;;;;;;;28.56;39.14;98361.59;5030885;28;20176;-77
2021/06/03 09:39:23;;;;;;;3.97;2.00;;;;;;;28.69;35.61;98354.31;5030951;28;20076;-77
2021/06/03 09:42:08;;;;;;;7.10;2.30;;;;;;;27.80;35.58;98359.97;4998499;28;20072;-77
2021/06/03 09:44:46;;;;;;;5.75;2.00;;;;;;;28.22;36.65;98353.25;5030761;28;20485;-75
2021/06/03 09:47:37;;;;;;;11.82;2.20;;;;;;;29.06;35.29;98347.84;5031790;28;20052;-75
2021/06/03 09:50:09;;;;;;;5.78;2.20;;;;;;;29.98;34.26;98340.81;5012780;28;20045;-77
2021/06/03 09:52:37;;;;;;;4.30;1.90;;;;;;;30.85;33.32;98343.09;5030534;28;20487;-77
2021/06/03 09:55:06;;;;;;;3.90;2.20;;;;;;;31.44;33.11;98346.56;4996142;28;20111;-76
2021/06/03 09:57:44;;;;;;;9.55;2.33;;;;;;;32.28;31.30;98342.06;5013628;28;20101;-78
2021/06/03 10:00:12;;;;;;;4.90;2.00;;;;;;;32.79;29.72;98340.22;5013160;28;20045;-78
2021/06/03 10:02:39;;;;;;;8.32;2.17;;;;;;;32.00;30.42;98344.38;5030784;28;20107;-78
2021/06/03 10:05:20;;;;;;;5.72;2.03;;;;;;;32.43;29.19;98332.00;5013721;28;20046;-77
2021/06/03 10:08:00;;;;;;;4.80;2.00;;;;;;;31.69;30.33;98334.78;5031736;28;20042;-78
2021/06/03 10:10:31;;;;;;;7.13;2.38;;;;;;;31.72;29.61;98339.47;5013570;28;20119;-78
2021/06/03 10:13:03;;;;;;;4.93;2.03;;;;;;;32.30;29.35;98331.19;5031264;28;20045;-77
2021/06/03 10:15:30;;;;;;;3.75;2.22;;;;;;;33.75;28.78;98334.00;5032261;28;20049;-78
2021/06/03 10:18:00;;;;;;;3.97;2.20;;;;;;;34.39;27.33;98323.31;5032455;28;20427;-77
2021/06/03 10:20:35;;;;;;;6.65;2.17;;;;;;;34.55;28.24;98325.16;5030599;28;20042;-78
2021/06/03 10:23:02;;;;;;;7.83;2.50;;;;;;;34.80;27.79;98314.56;5031208;28;20048;-77
2021/06/03 10:25:31;;;;;;;3.28;2.00;;;;;;;35.96;25.90;98322.34;5030363;28;20041;-77
2021/06/03 10:28:04;;;;;;;6.78;2.20;;;;;;;35.51;27.00;98321.00;5012657;28;20119;-77
2021/06/03 10:30:44;;;;;;;4.75;2.22;;;;;;;31.46;29.83;98320.97;4998165;28;20064;-77
2021/06/03 10:33:13;;;;;;;9.13;2.40;;;;;;;34.69;27.80;98325.44;5031456;28;20041;-77
2021/06/03 10:35:44;;;;;;;8.73;2.20;;;;;;;34.94;26.26;98319.66;5011840;28;20351;-77
2021/06/03 10:38:12;;;;;;;16.48;2.88;;;;;;;35.74;26.32;98318.88;5029427;28;20045;-76
2021/06/03 10:40:43;;;;;;;5.85;2.08;;;;;;;36.20;24.88;98321.31;5012812;28;20099;-76
2021/06/03 10:43:11;;;;;;;12.77;2.50;;;;;;;37.08;24.64;98321.38;5013003;28;20042;-76
2021/06/03 10:45:41;;;;;;;7.57;2.33;;;;;;;36.39;25.44;98319.28;5011218;28;20100;-76
2021/06/03 10:48:09;;;;;;;8.25;2.10;;;;;;;36.54;25.72;98311.75;4997534;28;20287;-76
2021/06/03 10:50:41;;;;;;;2.38;1.98;;;;;;;37.00;24.28;98312.44;5014745;28;20258;-76
2021/06/03 10:53:11;;;;;;;5.55;2.20;;;;;;;34.12;26.50;98307.00;5030896;28;20099;-75
2021/06/03 10:55:41;;;;;;;5.03;2.17;;;;;;;35.17;25.21;98309.94;5013356;28;20049;-76
2021/06/03 10:58:10;;;;;;;6.45;2.10;;;;;;;35.75;23.93;98309.94;5029406;28;20661;-77
2021/06/03 11:01:03;;;;;;;4.63;2.10;;;;;;;35.20;25.72;98309.00;5031435;28;20038;-76
2021/06/03 11:03:40;;;;;;;16.17;2.85;;;;;;;35.09;25.71;98316.28;5033798;28;20084;-78
2021/06/03 11:06:13;;;;;;;7.57;2.30;;;;;;;33.93;26.90;98310.09;5014106;28;20056;-77
2021/06/03 11:08:45;;;;;;;5.15;2.13;;;;;;;34.60;26.13;98316.16;5030290;28;20103;-77
2021/06/03 11:11:12;;;;;;;4.13;2.20;;;;;;;34.24;26.42;98311.81;5030339;28;20046;-77
2021/06/03 11:13:47;;;;;;;6.70;2.15;;;;;;;35.58;25.27;98305.84;5029619;28;20038;-77
2021/06/03 11:16:19;;;;;;;5.32;2.25;;;;;;;36.66;23.82;98310.78;5032227;28;20130;-78
2021/06/03 11:18:56;;;;;;;9.70;2.55;;;;;;;37.15;24.54;98309.72;5016930;28;20053;-77
2021/06/03 11:21:35;;;;;;;2.70;2.20;;;;;;;35.74;23.77;98297.13;5010208;28;20053;-78
2021/06/03 11:24:09;;;;;;;12.18;2.70;;;;;;;37.90;23.20;98291.44;5017654;28;20045;-76
2021/06/03 11:26:39;;;;;;;15.35;2.88;;;;;;;38.47;23.65;98300.56;5019007;28;20419;-75
2021/06/03 11:29:11;;;;;;;6.63;2.40;;;;;;;37.95;23.16;98296.44;5022474;28;20764;-76
2021/06/03 11:31:40;;;;;;;5.57;2.10;;;;;;;37.62;22.99;98292.09;5024709;28;20095;-76
2021/06/03 11:34:16;;;;;;;20.27;2.78;;;;;;;36.23;24.46;98302.66;5015762;28;20041;-75
2021/06/03 11:36:45;;;;;;;10.15;2.40;;;;;;;35.41;24.17;98310.94;5008258;28;20108;-77
2021/06/03 11:39:30;;;;;;;8.35;2.10;;;;;;;35.85;24.45;98305.13;5017484;28;20500;-77
2021/06/03 11:42:22;;;;;;;5.53;1.98;;;;;;;34.21;24.84;98295.84;5005832;28;20069;-77